Terminal Aerodrome Forecast
Issued by NWS

Home | Current Version | Previous Version | Text Only | Print | Product List | Glossary On
Versions: 1 2 3 4 5 6 7 8 9 10 11 12 13 14 15
927
FTUS46 KSGX 081127
TAFSNA
TAF
KSNA 081127Z 0812/0912 06006KT P6SM SKC WS020/05030KT
     FM081500 05010G18KT P6SM SKC
     FM082100 01008KT P6SM SKC
     FM090100 06005KT P6SM SKC=

USA.gov is the U.S. government's official web portal to all federal, state and local government web resources and services.